Flight Track Log - Related Links

Times and Time Zones

All times are in EDT time to prevent confusion due to time zone crossing. See the USC392 flight status page for this flight to view local times or setup timezone preferences in your user account.

Time Position Orientation Groundspeed Altitude Reporting Facility
EDT Latitude Longitude Course Direction KTS MPH feet Rate Location/Type
Wed 10:47:08 PM 33.8833 -84.2000 90° East 135 155 3,600  Level Atlanta TRACON
Wed 10:48:08 PM 33.8833 -84.1500 90° East 130 150 4,600 619 Climbing Atlanta TRACON
Wed 10:49:14 PM 33.9000 -84.1000 68° East 158 182 4,900 143 Climbing Atlanta TRACON
Wed 10:50:14 PM 33.9000 -84.0333 90° East 175 201 4,900 200 Level Atlanta TRACON
Wed 10:51:00 PM 33.8667 -84.0573 90° East  Level FlightAware Approximate
Wed 10:51:14 PM 33.9000 -83.9833 90° East 167 192 5,300  Level Atlanta TRACON
Wed 10:52:57 PM 33.9047 -83.8986 86° East 154 177 6,400 663 Climbing Atlanta Center
Wed 10:53:57 PM 33.9069 -83.8511 87° East 141 162 7,100 700 Climbing Atlanta Center
Wed 10:54:57 PM 33.9089 -83.8061 87° East 141 162 7,800 650 Climbing Atlanta Center
Wed 10:55:57 PM 33.9086 -83.7558 90° East 141 162 8,400 550 Climbing Atlanta Center
Wed 10:56:57 PM 33.9192 -83.7108 74° East 141 162 8,900 300 Climbing Atlanta Center
Wed 10:57:57 PM 33.9397 -83.6658 61° Northeast 141 162 9,000 50 Climbing Atlanta Center
Wed 10:58:57 PM 33.9667 -83.6131 58° Northeast 152 175 9,000  Level Atlanta Center
Wed 10:59:57 PM 33.9917 -83.5628 59° Northeast 165 190 9,000  Level Atlanta Center
Wed 11:00:57 PM 34.0103 -83.5200 62° Northeast 165 190 9,000  Level Atlanta Center
Wed 11:01:57 PM 34.0331 -83.4722 60° Northeast 165 190 9,000  Level Atlanta Center
Wed 11:02:57 PM 34.0536 -83.4244 63° Northeast 165 190 9,000  Level Atlanta Center
Wed 11:03:57 PM 34.0806 -83.3742 57° Northeast 165 190 9,000  Level Atlanta Center
Wed 11:04:57 PM 34.1031 -83.3264 60° Northeast 165 190 9,000  Level Atlanta Center
Wed 11:05:57 PM 34.1342 -83.2708 56° Northeast 171 197 9,000  Level Atlanta Center
Wed 11:06:57 PM 34.1506 -83.2306 64° Northeast 164 189 9,000  Level Atlanta Center
Wed 11:07:57 PM 34.1731 -83.1800 62° Northeast 164 189 9,000  Level Atlanta Center
Wed 11:08:57 PM 34.1978 -83.1297 59° Northeast 164 189 9,000  Level Atlanta Center
Wed 11:09:57 PM 34.2225 -83.0842 57° Northeast 164 189 9,000  Level Atlanta Center
Wed 11:10:57 PM 34.2450 -83.0336 62° Northeast 164 189 9,000  Level Atlanta Center
Wed 11:11:57 PM 34.2697 -82.9856 58° Northeast 164 189 9,000  Level Atlanta Center
Wed 11:12:57 PM 34.2922 -82.9350 62° Northeast 164 189 9,000  Level Atlanta Center
Wed 11:13:57 PM 34.3147 -82.8894 59° Northeast 164 189 9,000  Level Atlanta Center
Wed 11:14:57 PM 34.3394 -82.8389 59° Northeast 164 189 9,000  Level Atlanta Center
Wed 11:15:57 PM 34.3619 -82.7931 59° Northeast 164 189 9,000  Level Atlanta Center
Wed 11:16:57 PM 34.3844 -82.7425 62° Northeast 164 189 9,000  Level Atlanta Center
Wed 11:17:57 PM 34.4089 -82.6942 58° Northeast 164 189 9,000  Level Atlanta Center
Wed 11:18:57 PM 34.4311 -82.6436 62° Northeast 164 189 9,000  Level Atlanta Center
Wed 11:19:57 PM 34.4556 -82.5928 60° Northeast 169 194 9,000  Level Atlanta Center
Wed 11:20:57 PM 34.4800 -82.5394 61° Northeast 169 194 9,000 -284 Level Atlanta Center
Wed 11:22:00 PM 34.5039 -82.4868 61° Northeast  Level FlightAware Approximate
Wed 11:29:00 PM 34.6629 -82.1352 61° Northeast  Level FlightAware Approximate
Wed 11:30:00 PM 34.6856 -82.0849 61° Northeast  Level FlightAware Approximate
Wed 11:30:53 PM 34.7272 -82.0144 61° Northeast 180 207 5,900  Level Atlanta Center
Wed 11:31:00 PM 34.7082 -82.0346 61° Northeast  Level FlightAware Approximate
Wed 11:31:47 PM 34.7533 -81.9581 61° Northeast 184 212 5,600  Level Atlanta Center
Wed 11:32:00 PM 34.7308 -81.9842 61° Northeast  Level FlightAware Approximate
Wed 11:32:48 PM 34.7775 -81.9044 61° Northeast 184 212 5,200  Level Atlanta Center
Wed 11:33:00 PM 34.7533 -81.9337 61° Northeast  Level FlightAware Approximate
Wed 11:33:49 PM 34.8036 -81.8481 61° Northeast 186 214 5,000  Level Atlanta Center
Wed 11:34:00 PM 34.7759 -81.8833 61° Northeast  Level FlightAware Approximate
Wed 11:34:49 PM 34.8297 -81.7917 61° Northeast 180 207 5,000  Level Atlanta Center
Wed 11:35:00 PM 34.7984 -81.8328 61° Northeast  Level FlightAware Approximate
Wed 11:35:50 PM 34.8539 -81.7381 61° Northeast 177 204 5,000  Level Atlanta Center
Wed 11:36:00 PM 34.8209 -81.7823 61° Northeast  Level FlightAware Approximate
Wed 11:36:50 PM 34.8778 -81.6892 59° Northeast 177 204 5,000  Level Atlanta Center
Wed 11:37:51 PM 34.8997 -81.6353 64° Northeast 179 206 5,000  Level Atlanta Center
Wed 11:38:58 PM 34.9297 -81.5736 59° Northeast 178 205 5,000  Level Atlanta Center
Wed 11:39:58 PM 34.9539 -81.5250 59° Northeast 175 201 5,000  Level Atlanta Center
Wed 11:40:53 PM 34.9869 -81.5011 31° Northeast 167 192 5,000  Level Atlanta Center
Wed 11:41:53 PM 35.0300 -81.4692 31° Northeast 170 196 5,000  Level Atlanta Center
Wed 11:42:54 PM 35.0625 -81.4278 46° Northeast 173 199 5,000  Level Atlanta Center
Wed 11:43:55 PM 35.0950 -81.3911 43° Northeast 167 192 5,000  Level Atlanta Center
Wed 11:44:55 PM 35.1275 -81.3469 48° Northeast 166 191 5,000  Level Atlanta Center
Wed 11:45:56 PM 35.1600 -81.3078 45° Northeast 166 191 5,000  Level Atlanta Center
Wed 11:46:56 PM 35.1925 -81.2633 48° Northeast 169 194 5,000  Level Atlanta Center
Wed 11:48:03 PM 35.2289 -81.2192 45° Northeast 169 194 5,000  Level Atlanta Center
Wed 11:49:04 PM 35.2614 -81.1747 48° Northeast 169 194 5,000  Level Atlanta Center
Wed 11:50:04 PM 35.2939 -81.1353 45° Northeast 171 197 5,000 -470 Level Atlanta Center
Wed 11:50:59 PM 35.3050 -81.0789 76° East 202 232 4,100 -724 Descending Atlanta Center
Wed 11:52:00 PM 35.3014 -81.0156 94° East 197 227 3,600 -843 Descending Atlanta Center
Wed 11:53:00 PM 35.2686 -80.9581 125° Southeast 196 226 2,400 -1,190 Descending Atlanta Center
Wed 11:54:01 PM 35.2344 -80.9264 143° Southeast 153 176 1,200 -1,180 Descending Atlanta Center
Wed 11:56:00 PM 35.2000 -80.9333 168° South  Level FlightAware Approximate

Login

Don't have an account? Register now (free) for customized features, flight alerts, and more!